Time;durP1;ratioP1;P1;durP2;ratioP2;P2;SDS_P1;SDS_P2;PMS_P1;PMS_P2;Temp;Humidity;BMP_temperature;BMP_pressure;BME280_temperature;BME280_humidity;BME280_pressure;Samples;Min_cycle;Max_cycle;Signal;HPM_P1;HPM_P2
2023/07/06 00:00:55;;;;;;;1.50;1.23;;;18.30;99.90;;;18.63;nan;100723.53;4989309;28;20631;-66
2023/07/06 00:03:25;;;;;;;1.33;1.23;;;18.30;99.90;;;18.59;nan;100726.47;4995674;28;20630;-67
2023/07/06 00:05:52;;;;;;;1.70;1.57;;;18.30;99.90;;;18.62;nan;100729.78;4993109;28;20625;-66
2023/07/06 00:08:20;;;;;;;1.50;1.40;;;18.20;99.90;;;18.63;nan;100726.16;4988495;28;20657;-64
2023/07/06 00:10:51;;;;;;;1.50;1.40;;;18.30;99.90;;;18.69;nan;100725.53;4980011;28;21018;-65
2023/07/06 00:13:23;;;;;;;1.27;1.27;;;18.30;99.90;;;18.72;nan;100725.22;4988602;28;20618;-68
2023/07/06 00:15:51;;;;;;;1.27;1.17;;;18.30;99.90;;;18.78;nan;100727.22;4990820;28;20649;-65
2023/07/06 00:18:20;;;;;;;2.77;1.10;;;18.40;99.90;;;18.81;nan;100726.88;5001487;28;21037;-66
2023/07/06 00:20:49;;;;;;;2.47;1.67;;;18.40;99.90;;;18.82;nan;100728.53;4990649;28;20638;-65
2023/07/06 00:23:17;;;;;;;1.37;1.27;;;18.40;99.90;;;18.84;nan;100729.22;4987484;28;20633;-67
2023/07/06 00:25:44;;;;;;;1.23;1.20;;;18.50;99.90;;;18.85;nan;100722.91;4982038;28;20620;-67
2023/07/06 00:28:11;;;;;;;1.07;1.07;;;18.50;99.90;;;18.75;nan;100736.28;5006538;28;20665;-66
2023/07/06 00:33:16;;;;;;;1.20;1.20;;;18.30;99.90;;;18.45;nan;100732.38;5002894;28;20625;-67
2023/07/06 00:35:44;;;;;;;1.30;1.20;;;18.10;99.90;;;18.35;nan;100736.91;5002660;28;20637;-67
2023/07/06 00:38:14;;;;;;;1.07;1.07;;;18.00;99.90;;;18.32;nan;100728.47;4997898;28;21051;-67
2023/07/06 00:40:58;;;;;;;1.53;1.43;;;18.00;99.90;;;18.33;nan;100732.78;4971649;28;21287;-68
2023/07/06 00:43:44;;;;;;;1.30;1.30;;;18.00;99.90;;;18.35;nan;100718.44;4992233;28;20614;-65
2023/07/06 00:46:12;;;;;;;1.70;1.33;;;18.00;99.90;;;18.40;nan;100728.50;5011625;28;20601;-68
2023/07/06 00:48:44;;;;;;;1.40;1.40;;;18.00;99.90;;;18.42;nan;100727.34;5001921;28;21124;-65
2023/07/06 00:51:27;;;;;;;8.70;1.10;;;18.10;99.90;;;18.44;nan;100725.41;4993529;28;20638;-66
2023/07/06 00:54:03;;;;;;;1.60;1.50;;;18.10;99.90;;;18.44;nan;100722.78;4993044;28;20645;-67
2023/07/06 00:56:37;;;;;;;1.10;1.00;;;18.10;99.90;;;18.43;nan;100728.19;4979948;28;20684;-66
2023/07/06 00:59:09;;;;;;;1.03;1.03;;;18.10;99.90;;;18.38;nan;100719.91;4978282;28;21290;-67
2023/07/06 01:01:41;;;;;;;1.20;1.13;;;18.00;99.90;;;18.28;nan;100727.97;4983440;28;20626;-68
2023/07/06 01:04:12;;;;;;;1.23;1.17;;;18.00;99.90;;;18.16;nan;100734.50;4975540;28;20629;-68
2023/07/06 01:06:51;;;;;;;1.40;1.23;;;17.90;99.90;;;18.09;nan;100730.00;4991843;28;20666;-65
2023/07/06 01:09:18;;;;;;;2.20;1.50;;;17.80;99.90;;;18.07;nan;100731.97;4993959;28;20610;-66
2023/07/06 01:11:46;;;;;;;1.70;1.57;;;17.80;99.90;;;17.99;nan;100730.13;4991706;28;20654;-65
2023/07/06 01:14:14;;;;;;;1.03;1.00;;;17.60;99.90;;;17.95;nan;100726.13;4988876;28;20626;-66
2023/07/06 01:17:18;;;;;;;1.83;1.47;;;17.70;99.90;;;17.83;nan;100722.06;4992358;28;20677;-67
2023/07/06 01:19:48;;;;;;;0.90;0.90;;;17.50;99.90;;;17.71;nan;100724.13;4974268;28;20708;-66
2023/07/06 01:23:04;;;;;;;1.20;1.10;;;17.40;99.90;;;17.59;nan;100727.97;4992510;28;20652;-66
2023/07/06 01:26:34;;;;;;;0.70;0.70;;;17.30;99.90;;;17.46;nan;100734.63;4972190;28;20627;-66
2023/07/06 01:29:09;;;;;;;2.23;1.17;;;17.20;99.90;;;17.40;nan;100730.75;4963153;28;21442;-66
2023/07/06 01:31:52;;;;;;;1.50;1.40;;;17.10;99.90;;;17.42;nan;100726.16;4983280;28;20679;-65
2023/07/06 01:34:35;;;;;;;1.40;1.30;;;17.10;99.90;;;17.49;nan;100727.22;4983946;28;20622;-65
2023/07/06 01:37:24;;;;;;;1.47;1.37;;;17.10;99.90;;;17.58;nan;100728.16;4972056;28;20718;-68
2023/07/06 01:39:53;;;;;;;1.50;1.40;;;17.20;99.90;;;17.62;nan;100726.84;4975754;28;20622;-66
2023/07/06 01:42:25;;;;;;;1.13;1.13;;;17.30;99.90;;;17.60;nan;100724.38;4991678;28;20619;-66
2023/07/06 01:44:58;;;;;;;1.20;1.10;;;17.30;99.90;;;17.56;nan;100730.13;4990066;28;20707;-67
2023/07/06 01:47:29;;;;;;;1.20;1.10;;;17.30;99.90;;;17.49;nan;100734.28;4991883;28;20674;-66
2023/07/06 01:49:57;;;;;;;1.23;1.13;;;17.20;99.90;;;17.44;nan;100732.09;4977850;28;20637;-65
2023/07/06 01:52:36;;;;;;;1.80;1.70;;;17.10;99.90;;;17.40;nan;100735.22;4999297;28;20624;-66
2023/07/06 01:55:38;;;;;;;1.20;1.20;;;17.10;99.90;;;17.45;nan;100739.06;4989791;28;20644;-67
2023/07/06 01:58:25;;;;;;;2.20;1.83;;;17.10;99.90;;;17.50;nan;100741.28;4972300;28;21076;-66
2023/07/06 02:01:01;;;;;;;1.43;1.30;;;17.20;99.90;;;17.54;nan;100743.47;4984911;28;21004;-66
2023/07/06 02:03:29;;;;;;;1.13;1.13;;;17.20;99.90;;;17.60;nan;100736.72;4974521;28;20617;-66
2023/07/06 02:05:57;;;;;;;1.40;1.30;;;17.30;99.90;;;17.69;nan;100743.75;4992091;28;20642;-66
2023/07/06 02:08:25;;;;;;;2.20;1.50;;;17.30;99.90;;;17.69;nan;100739.31;4993298;28;20642;-65
2023/07/06 02:10:52;;;;;;;1.60;1.50;;;17.40;99.90;;;17.71;nan;100742.63;4988292;28;20638;-65
2023/07/06 02:13:20;;;;;;;2.00;1.80;;;17.40;99.90;;;17.74;nan;100744.09;4990418;28;20638;-65
2023/07/06 02:15:47;;;;;;;1.60;1.50;;;17.40;99.90;;;17.73;nan;100743.28;4986194;28;21010;-66
2023/07/06 02:18:14;;;;;;;1.70;1.60;;;17.40;99.90;;;17.74;nan;100733.53;4997902;28;20674;-65
2023/07/06 02:20:41;;;;;;;1.33;1.33;;;17.40;99.90;;;17.76;nan;100735.03;4990053;28;20642;-65
2023/07/06 02:23:11;;;;;;;1.67;1.57;;;17.40;99.90;;;17.76;nan;100732.41;4991455;28;20641;-67
2023/07/06 02:25:39;;;;;;;1.57;1.47;;;17.50;99.90;;;17.76;nan;100737.69;4991091;28;20641;-66
2023/07/06 02:28:08;;;;;;;1.70;1.60;;;17.40;99.90;;;17.74;nan;100737.00;4990742;28;20677;-67
2023/07/06 02:30:37;;;;;;;2.23;1.90;;;17.40;99.90;;;17.72;nan;100738.13;4988316;28;20649;-68
2023/07/06 02:33:04;;;;;;;1.93;1.83;;;17.40;99.90;;;17.72;nan;100730.22;4974652;28;20730;-66
2023/07/06 02:35:34;;;;;;;1.30;1.20;;;17.40;99.90;;;17.67;nan;100732.50;4976096;28;20646;-66
2023/07/06 02:38:01;;;;;;;1.30;1.20;;;17.40;99.90;;;17.61;nan;100727.84;4991373;28;20662;-69
2023/07/06 02:40:29;;;;;;;1.57;1.47;;;17.30;99.90;;;17.59;nan;100733.25;4990982;28;21198;-66
2023/07/06 02:42:56;;;;;;;1.67;1.57;;;17.30;99.90;;;17.56;nan;100723.03;4988770;28;20634;-66
2023/07/06 02:45:23;;;;;;;1.70;1.37;;;17.30;99.90;;;17.50;nan;100726.28;4988350;28;20617;-66
2023/07/06 02:47:50;;;;;;;1.53;1.43;;;17.20;99.90;;;17.49;nan;100727.22;4991411;28;20646;-66
2023/07/06 02:50:19;;;;;;;1.50;1.40;;;17.20;99.90;;;17.50;nan;100720.19;4995717;28;20652;-67
2023/07/06 02:52:47;;;;;;;1.43;1.33;;;17.20;99.90;;;17.47;nan;100723.91;4995518;28;20645;-67
2023/07/06 02:55:16;;;;;;;1.60;1.50;;;17.20;99.90;;;17.49;nan;100724.59;4973732;28;20633;-68
2023/07/06 02:57:43;;;;;;;1.80;1.70;;;17.20;99.90;;;17.46;nan;100726.69;4992168;28;21025;-67
2023/07/06 03:00:14;;;;;;;2.37;1.33;;;17.20;99.90;;;17.49;nan;100723.75;4989096;28;20638;-67
2023/07/06 03:02:41;;;;;;;2.93;1.40;;;17.20;99.90;;;17.45;nan;100717.97;4991547;28;20613;-66
2023/07/06 03:05:09;;;;;;;1.60;1.50;;;17.10;99.90;;;17.44;nan;100715.47;4988802;28;20653;-66
2023/07/06 03:07:36;;;;;;;1.40;1.30;;;17.20;99.90;;;17.43;nan;100719.91;4992022;28;20653;-65
2023/07/06 03:10:05;;;;;;;3.33;2.10;;;17.10;99.90;;;17.38;nan;100730.09;4991925;28;20645;-67
2023/07/06 03:12:36;;;;;;;1.57;1.47;;;17.00;99.90;;;17.34;nan;100728.72;4988964;28;20638;-66
2023/07/06 03:15:13;;;;;;;1.47;1.37;;;17.10;99.90;;;17.31;nan;100722.94;4980837;28;21198;-66
2023/07/06 03:17:41;;;;;;;1.43;1.33;;;17.00;99.90;;;17.26;nan;100727.81;4987901;28;20682;-64
2023/07/06 03:20:13;;;;;;;2.00;1.80;;;17.00;99.90;;;17.23;nan;100720.22;4988396;28;20635;-67
2023/07/06 03:22:44;;;;;;;1.40;1.40;;;16.90;99.90;;;17.24;nan;100714.81;4990815;28;20617;-66
2023/07/06 03:25:13;;;;;;;1.57;1.47;;;17.00;99.90;;;17.21;nan;100725.63;4986974;28;20688;-68
2023/07/06 03:27:41;;;;;;;2.83;1.60;;;16.90;99.90;;;17.21;nan;100720.38;4991967;28;20676;-66
2023/07/06 03:30:10;;;;;;;1.70;1.57;;;16.90;99.90;;;17.19;nan;100722.31;4988272;28;20650;-66
2023/07/06 03:32:38;;;;;;;1.33;1.27;;;16.90;99.90;;;17.17;nan;100724.28;4984519;28;20646;-68
2023/07/06 03:35:09;;;;;;;1.53;1.40;;;16.90;99.90;;;17.13;nan;100725.56;4976447;28;20637;-65
2023/07/06 03:37:37;;;;;;;1.67;1.57;;;16.80;99.90;;;17.08;nan;100726.00;4979791;28;21225;-66
2023/07/06 03:40:10;;;;;;;1.57;1.47;;;16.80;99.90;;;17.08;nan;100724.38;4993663;28;21276;-66
2023/07/06 03:42:40;;;;;;;1.37;1.27;;;16.80;99.90;;;17.08;nan;100724.38;4987862;28;21052;-67
2023/07/06 03:45:08;;;;;;;1.77;1.67;;;16.80;99.90;;;17.08;nan;100729.63;4987541;28;20618;-66
2023/07/06 03:47:37;;;;;;;1.60;1.50;;;16.80;99.90;;;17.06;nan;100720.06;4990049;28;20685;-68
2023/07/06 03:50:09;;;;;;;1.30;1.30;;;16.80;99.90;;;17.13;nan;100732.63;4978517;28;20642;-66
2023/07/06 03:52:39;;;;;;;1.53;1.43;;;16.80;99.90;;;17.19;nan;100734.66;4983734;28;20646;-65
2023/07/06 03:55:21;;;;;;;1.67;1.53;;;16.90;99.90;;;17.22;nan;100743.13;4988272;28;20626;-67
2023/07/06 03:57:49;;;;;;;1.67;1.57;;;16.90;99.90;;;17.29;nan;100732.81;4993463;28;21043;-66
2023/07/06 04:00:30;;;;;;;1.47;1.37;;;17.00;99.90;;;17.35;nan;100737.47;4997126;28;20999;-66
2023/07/06 04:03:03;;;;;;;2.30;1.40;;;17.00;99.90;;;17.37;nan;100736.34;4972812;28;20678;-66
2023/07/06 04:05:38;;;;;;;1.80;1.60;;;17.00;99.90;;;17.41;nan;100734.22;4988225;28;20639;-66
2023/07/06 04:08:12;;;;;;;1.50;1.50;;;17.10;99.90;;;17.49;nan;100747.50;4987226;28;21236;-66
2023/07/06 04:10:40;;;;;;;1.70;1.60;;;17.20;99.90;;;17.61;nan;100744.50;4989625;28;20635;-66
2023/07/06 04:13:10;;;;;;;1.10;1.10;;;17.30;99.90;;;17.77;nan;100749.06;4999382;28;20660;-65
2023/07/06 04:15:40;;;;;;;1.50;1.40;;;17.40;99.90;;;17.91;nan;100755.63;4988766;28;20606;-66
2023/07/06 04:18:07;;;;;;;1.67;1.57;;;17.60;99.90;;;18.07;nan;100756.56;4991748;28;20680;-66
2023/07/06 04:20:34;;;;;;;1.00;1.00;;;17.70;99.90;;;18.20;nan;100762.25;4992865;28;20626;-68
2023/07/06 04:23:03;;;;;;;1.70;1.60;;;17.90;99.90;;;18.33;nan;100770.59;4974571;28;20591;-66
2023/07/06 04:25:33;;;;;;;8.80;1.43;;;18.00;99.90;;;18.43;nan;100770.47;4974831;28;20694;-66
2023/07/06 04:28:05;;;;;;;1.33;1.30;;;18.10;99.90;;;18.55;nan;100764.78;4997316;28;20723;-64
2023/07/06 04:30:39;;;;;;;1.60;1.17;;;18.30;99.90;;;18.69;nan;100768.66;4997640;28;21177;-67
2023/07/06 04:33:09;;;;;;;2.20;1.33;;;18.40;99.90;;;18.81;nan;100771.81;4986005;28;20640;-67
2023/07/06 04:35:36;;;;;;;0.93;0.90;;;18.50;99.90;;;18.91;nan;100762.75;4984908;28;20642;-66
2023/07/06 04:38:06;;;;;;;2.30;1.80;;;18.60;99.90;;;19.01;nan;100774.06;4988069;28;20686;-67
2023/07/06 04:40:34;;;;;;;1.40;1.30;;;18.70;99.90;;;19.06;nan;100771.72;4987331;28;20649;-68
2023/07/06 04:43:01;;;;;;;2.90;2.03;;;18.70;99.90;;;19.14;nan;100777.06;4990294;28;20635;-66
2023/07/06 04:45:28;;;;;;;1.47;1.37;;;18.90;99.90;;;19.25;nan;100773.28;4990069;28;20626;-66
2023/07/06 04:47:56;;;;;;;2.30;1.47;;;19.00;99.90;;;19.46;nan;100784.28;4989142;28;20666;-66
2023/07/06 04:50:24;;;;;;;6.43;2.13;;;19.10;99.90;;;19.65;nan;100781.31;4968996;28;20703;-65
2023/07/06 04:52:55;;;;;;;2.97;2.50;;;19.30;99.90;;;19.93;nan;100776.50;4995340;28;20630;-67
2023/07/06 04:55:25;;;;;;;2.30;2.10;;;19.50;99.90;;;20.13;nan;100777.78;4991999;28;20630;-66
2023/07/06 04:57:54;;;;;;;2.20;1.63;;;19.80;99.90;;;20.30;nan;100774.13;4987508;28;20686;-65
2023/07/06 05:00:26;;;;;;;1.90;1.80;;;20.00;99.90;;;20.53;nan;100774.25;4987808;28;20622;-67
2023/07/06 05:02:58;;;;;;;2.07;1.97;;;20.20;99.90;;;20.83;nan;100786.72;4993339;28;20594;-65
2023/07/06 05:05:29;;;;;;;2.23;2.00;;;20.40;99.90;;;21.11;nan;100785.28;4991874;28;20614;-68
2023/07/06 05:07:56;;;;;;;2.10;2.00;;;20.70;99.90;;;21.37;nan;100785.81;4976628;28;21248;-65
2023/07/06 05:10:25;;;;;;;1.53;1.43;;;21.00;99.90;;;21.63;nan;100786.28;4991443;28;20641;-68
2023/07/06 05:12:55;;;;;;;2.27;1.77;;;21.20;99.90;;;21.71;nan;100795.16;4986110;28;20621;-65
2023/07/06 05:15:23;;;;;;;2.03;1.90;;;21.40;99.90;;;21.81;nan;100790.44;4992317;28;20610;-66
2023/07/06 05:17:52;;;;;;;1.50;1.50;;;21.50;99.90;;;21.92;nan;100787.38;4991321;28;20681;-66
2023/07/06 05:20:20;;;;;;;5.23;1.37;;;21.60;99.90;;;22.11;nan;100792.19;4967573;28;20617;-66
2023/07/06 05:22:48;;;;;;;2.17;1.87;;;21.80;99.90;;;22.28;nan;100788.38;4972869;28;20669;-68
2023/07/06 05:25:17;;;;;;;1.70;1.60;;;21.90;99.90;;;22.50;nan;100795.44;4982149;28;21194;-68
2023/07/06 05:27:45;;;;;;;1.80;1.70;;;22.10;99.90;;;22.63;nan;100787.69;4992003;28;20700;-66
2023/07/06 05:30:13;;;;;;;1.77;1.70;;;22.20;99.80;;;22.86;nan;100796.38;4988692;28;21210;-66
2023/07/06 05:32:40;;;;;;;1.77;1.67;;;22.50;99.40;;;23.03;nan;100795.16;4990696;28;20634;-67
2023/07/06 05:35:08;;;;;;;1.93;1.73;;;22.70;98.80;;;23.22;nan;100795.56;4990078;28;20626;-65
2023/07/06 05:37:35;;;;;;;1.90;1.80;;;22.90;98.40;;;23.38;nan;100795.38;4991739;28;20677;-66
2023/07/06 05:40:19;;;;;;;2.93;1.60;;;23.00;97.90;;;23.56;nan;100798.41;4990236;28;20641;-66
2023/07/06 05:42:46;;;;;;;1.40;1.30;;;23.20;97.70;;;23.82;nan;100793.34;4990252;28;20621;-66
2023/07/06 05:45:14;;;;;;;1.97;1.87;;;23.40;96.80;;;24.10;nan;100804.88;4990893;28;20642;-65
2023/07/06 05:47:41;;;;;;;2.50;1.70;;;23.70;96.40;;;24.39;nan;100804.66;4993386;28;20666;-66
2023/07/06 05:50:08;;;;;;;3.37;2.30;;;24.00;95.50;;;24.51;nan;100808.44;4988098;28;21425;-67
2023/07/06 05:52:36;;;;;;;1.87;1.77;;;24.20;95.20;;;24.81;nan;100810.91;4997922;28;20646;-66
2023/07/06 05:55:03;;;;;;;1.70;1.60;;;24.40;94.80;;;24.98;nan;100807.66;4989862;28;20731;-66
2023/07/06 05:57:31;;;;;;;1.57;1.50;;;24.60;94.30;;;25.35;nan;100815.19;4992635;28;20677;-66
2023/07/06 05:59:58;;;;;;;2.53;2.33;;;24.90;93.90;;;25.61;nan;100813.63;4971691;28;20649;-67
2023/07/06 06:02:26;;;;;;;2.70;2.50;;;25.20;93.30;;;25.88;nan;100818.81;4984851;28;20653;-67
2023/07/06 06:04:53;;;;;;;2.57;2.17;;;25.40;93.10;;;26.26;nan;100818.22;4968055;28;20676;-66
2023/07/06 06:07:20;;;;;;;3.27;2.17;;;25.70;92.50;;;26.67;nan;100827.59;4987475;28;20673;-69
2023/07/06 06:09:48;;;;;;;2.33;2.13;;;26.10;91.90;;;26.89;nan;100831.69;4985125;28;20642;-66
2023/07/06 06:12:18;;;;;;;2.37;2.23;;;26.50;90.70;;;26.92;nan;100833.09;4993559;28;20645;-66
2023/07/06 06:14:48;;;;;;;5.67;2.23;;;26.50;90.50;;;27.13;nan;100832.81;4986981;28;20647;-65
2023/07/06 06:17:18;;;;;;;2.20;1.63;;;26.70;90.00;;;27.57;nan;100835.50;4985899;28;20673;-65
2023/07/06 06:19:46;;;;;;;2.10;2.00;;;27.10;89.00;;;27.74;nan;100835.81;4984691;28;20669;-65
2023/07/06 06:22:15;;;;;;;2.90;1.90;;;27.30;87.80;;;27.95;nan;100842.66;4972877;28;20680;-65
2023/07/06 06:24:44;;;;;;;2.67;1.90;;;27.50;86.20;;;28.13;nan;100840.06;4981286;28;20638;-67
2023/07/06 06:27:14;;;;;;;1.70;1.60;;;27.70;84.80;;;28.24;nan;100850.06;4983713;28;21019;-65
2023/07/06 06:29:42;;;;;;;2.87;2.40;;;27.80;83.80;;;28.35;nan;100838.63;4962896;28;20642;-64
2023/07/06 06:32:10;;;;;;;4.33;2.00;;;28.00;82.70;;;28.73;nan;100844.66;4972528;28;20651;-65
2023/07/06 06:34:39;;;;;;;1.80;1.70;;;28.30;80.50;;;29.20;nan;100847.66;4985039;28;20645;-66
2023/07/06 06:37:06;;;;;;;2.70;1.87;;;28.70;78.80;;;29.76;nan;100848.94;4990130;28;20678;-64
2023/07/06 06:39:34;;;;;;;2.13;1.90;;;29.20;77.70;;;30.15;nan;100852.03;4992602;28;20678;-66
2023/07/06 06:42:02;;;;;;;1.80;1.70;;;29.70;75.50;;;30.26;nan;100853.94;4995307;28;20630;-65
2023/07/06 06:44:30;;;;;;;1.57;1.33;;;30.00;73.00;;;30.63;nan;100855.34;4990807;28;20626;-65
2023/07/06 06:47:01;;;;;;;1.67;1.60;;;30.30;71.90;;;31.17;nan;100854.09;4991796;28;20666;-67
2023/07/06 06:49:35;;;;;;;3.67;2.27;;;30.70;71.70;;;31.86;nan;100856.47;4988171;28;20638;-64
2023/07/06 06:52:04;;;;;;;2.43;2.10;;;31.40;69.80;;;32.68;nan;100872.91;4974402;28;20656;-62
2023/07/06 06:54:32;;;;;;;1.73;1.63;;;32.20;72.00;;;33.24;nan;100866.38;4949032;28;20634;-67
2023/07/06 06:57:04;;;;;;;1.80;1.70;;;32.70;65.10;;;33.77;nan;100862.88;4967346;28;21348;-67
2023/07/06 06:59:32;;;;;;;2.03;1.77;;;33.30;63.40;;;34.23;nan;100856.78;4988778;28;21027;-67
2023/07/06 07:02:01;;;;;;;1.80;1.70;;;33.80;60.50;;;34.92;nan;100866.44;4990722;28;20987;-66
2023/07/06 07:04:29;;;;;;;1.77;1.70;;;34.50;59.20;;;35.47;nan;100859.56;4988198;28;20642;-65
2023/07/06 07:06:57;;;;;;;3.13;1.50;;;35.00;57.50;;;35.92;nan;100873.22;4989341;28;20649;-66
2023/07/06 07:09:24;;;;;;;1.93;1.80;;;35.50;55.40;;;36.50;nan;100867.22;4989544;28;20649;-65
2023/07/06 07:11:51;;;;;;;1.40;1.30;;;36.00;54.00;;;36.99;nan;100869.28;4989484;28;20635;-65
2023/07/06 07:14:18;;;;;;;1.63;1.33;;;36.50;52.30;;;37.43;nan;100859.25;4988287;28;20701;-66
2023/07/06 07:16:45;;;;;;;1.33;1.33;;;36.90;51.30;;;37.54;nan;100866.28;4989966;28;20658;-66
2023/07/06 07:19:13;;;;;;;2.53;1.43;;;37.00;50.80;;;37.91;nan;100865.72;4984821;28;20674;-65
2023/07/06 07:21:40;;;;;;;1.47;1.40;;;37.40;50.10;;;37.98;nan;100861.59;4990941;28;20606;-67
2023/07/06 07:24:08;;;;;;;1.73;1.63;;;37.70;49.90;;;38.16;nan;100861.97;4988980;28;20647;-67
2023/07/06 07:26:35;;;;;;;5.13;1.30;;;37.90;49.20;;;38.67;nan;100866.66;4989662;28;20731;-67
2023/07/06 07:29:03;;;;;;;1.70;1.60;;;38.30;48.70;;;38.97;nan;100864.69;4988833;28;20624;-67
2023/07/06 07:31:31;;;;;;;1.33;1.33;;;38.60;47.70;;;39.02;nan;100864.59;4988556;28;20684;-65
2023/07/06 07:33:59;;;;;;;1.40;1.40;;;38.80;47.20;;;39.33;nan;100866.66;4988939;28;20675;-64
2023/07/06 07:36:26;;;;;;;1.73;1.63;;;39.00;46.60;;;39.57;nan;100863.84;4990148;28;21185;-67
2023/07/06 07:38:56;;;;;;;1.60;1.60;;;39.30;45.90;;;39.76;nan;100866.59;4987516;28;20681;-67
2023/07/06 07:41:24;;;;;;;1.63;1.60;;;39.50;46.70;;;40.16;nan;100868.66;4990334;28;20619;-67
2023/07/06 07:43:51;;;;;;;1.87;1.77;;;39.90;45.50;;;40.45;nan;100866.47;4987969;28;20638;-67
2023/07/06 07:46:20;;;;;;;1.63;1.53;;;40.10;45.10;;;40.40;nan;100866.56;4990970;28;20602;-68
2023/07/06 07:48:49;;;;;;;1.67;1.67;;;40.30;45.20;;;40.32;nan;100861.78;4963564;28;20660;-66
2023/07/06 07:51:21;;;;;;;1.30;1.30;;;40.20;44.50;;;40.66;nan;100861.41;4988433;28;20631;-67
2023/07/06 07:53:48;;;;;;;1.73;1.57;;;40.40;44.50;;;40.95;nan;100859.22;4987444;28;20622;-68
2023/07/06 07:56:16;;;;;;;1.80;1.70;;;40.80;44.20;;;41.52;nan;100857.66;5002070;28;20631;-67
2023/07/06 07:58:48;;;;;;;1.40;1.40;;;41.10;43.60;;;41.41;nan;100850.78;4990843;28;20712;-68
2023/07/06 08:01:25;;;;;;;1.37;1.37;;;41.20;43.30;;;41.71;nan;100855.56;4988692;28;20641;-66
2023/07/06 08:03:55;;;;;;;1.70;1.60;;;41.40;43.20;;;41.99;nan;100854.31;5002009;28;20623;-68
2023/07/06 08:06:23;;;;;;;1.60;1.60;;;41.70;42.80;;;42.39;nan;100856.00;4989628;28;20676;-70
2023/07/06 08:08:50;;;;;;;1.70;1.60;;;42.10;42.40;;;42.75;nan;100853.06;4989708;28;20642;-68
2023/07/06 08:11:28;;;;;;;1.70;1.70;;;42.40;42.10;;;42.79;nan;100856.78;4969070;28;20650;-68
2023/07/06 08:13:58;;;;;;;1.43;1.43;;;42.70;41.40;;;42.39;nan;100856.00;4967841;28;20639;-68
2023/07/06 08:16:25;;;;;;;1.57;1.57;;;42.50;41.30;;;41.81;nan;100860.00;4989750;28;20667;-68
2023/07/06 08:18:55;;;;;;;1.67;1.60;;;42.10;41.40;;;41.56;nan;100853.19;4975793;28;20662;-67
2023/07/06 08:21:31;;;;;;;1.73;1.40;;;41.80;41.20;;;41.68;nan;100854.25;4991664;28;20620;-68
2023/07/06 08:24:03;;;;;;;1.40;1.40;;;41.80;40.40;;;42.29;nan;100858.22;4953480;28;20646;-69
2023/07/06 08:26:31;;;;;;;1.63;1.53;;;42.20;40.50;;;42.56;nan;100849.78;4968236;28;20664;-70
2023/07/06 08:28:58;;;;;;;3.10;3.00;;;42.50;39.70;;;42.87;nan;100853.28;5002803;28;20621;-67
2023/07/06 08:31:26;;;;;;;2.50;2.40;;;42.80;39.20;;;43.16;nan;100863.66;4995856;28;20676;-67
2023/07/06 08:33:54;;;;;;;1.60;1.60;;;43.00;39.30;;;43.05;nan;100856.88;4991650;28;20642;-70
2023/07/06 08:36:21;;;;;;;2.10;1.90;;;43.20;39.70;;;42.61;nan;100851.56;4992612;28;20661;-68
2023/07/06 08:38:48;;;;;;;1.20;1.20;;;42.90;39.40;;;42.64;nan;100859.19;4998344;28;21494;-65
2023/07/06 08:41:26;;;;;;;1.80;1.80;;;42.70;39.40;;;42.66;nan;100854.97;4990243;28;20614;-70
2023/07/06 08:43:54;;;;;;;1.53;1.53;;;42.70;39.50;;;42.14;nan;100848.47;4964833;28;20634;-68
2023/07/06 08:46:22;;;;;;;1.40;1.40;;;42.10;39.50;;;41.61;nan;100851.13;4958851;28;20658;-68
2023/07/06 08:48:53;;;;;;;1.37;1.27;;;41.40;40.00;;;40.57;nan;100850.38;4985906;28;20626;-66
2023/07/06 08:51:30;;;;;;;1.50;1.47;;;40.40;40.00;;;39.51;nan;100846.72;4996813;28;20637;-67
2023/07/06 08:54:02;;;;;;;1.80;1.70;;;39.20;40.80;;;38.42;nan;100839.66;4972821;28;20632;-68
2023/07/06 08:56:36;;;;;;;1.73;1.60;;;38.10;42.10;;;37.13;nan;100832.19;4996095;28;20654;-68
2023/07/06 08:59:13;;;;;;;1.43;1.43;;;36.90;42.40;;;35.76;nan;100833.56;4981890;28;20661;-67
2023/07/06 09:01:41;;;;;;;4.77;1.43;;;35.70;43.10;;;34.48;nan;100827.13;4988352;28;20645;-69
2023/07/06 09:04:19;;;;;;;1.57;1.30;;;34.40;44.30;;;33.13;nan;100822.16;4957696;28;20633;-66
2023/07/06 09:06:54;;;;;;;1.30;1.30;;;33.10;45.40;;;32.03;nan;100827.63;4991116;28;20658;-69
2023/07/06 09:09:21;;;;;;;1.30;1.30;;;31.90;46.50;;;31.05;nan;100816.38;4975302;28;20609;-68
2023/07/06 09:11:51;;;;;;;1.40;1.30;;;30.90;47.40;;;30.45;nan;100820.47;4972188;28;21033;-68
2023/07/06 09:14:21;;;;;;;1.23;1.23;;;30.20;48.40;;;29.92;nan;100817.88;4991333;28;20627;-68
2023/07/06 09:16:58;;;;;;;0.93;0.93;;;29.70;49.50;;;29.56;nan;100813.41;4974830;28;20650;-67
2023/07/06 09:19:26;;;;;;;1.73;1.20;;;29.20;50.10;;;29.36;nan;100807.53;4972565;28;20646;-68
2023/07/06 09:21:56;;;;;;;1.10;1.00;;;28.90;50.10;;;29.38;nan;100810.81;4973095;28;20629;-68
2023/07/06 09:24:28;;;;;;;1.30;1.30;;;28.90;50.20;;;29.32;nan;100809.03;4990822;28;21190;-69
2023/07/06 09:26:58;;;;;;;2.33;1.10;;;28.90;50.80;;;29.20;nan;100808.16;4986625;28;20664;-68
2023/07/06 09:29:37;;;;;;;1.00;1.00;;;28.70;51.10;;;29.07;nan;100800.22;4973640;28;20630;-68
2023/07/06 09:32:20;;;;;;;1.60;1.50;;;28.60;50.60;;;29.01;nan;100804.66;4986834;28;20645;-69
2023/07/06 09:34:55;;;;;;;1.20;1.10;;;28.60;51.00;;;29.03;nan;100802.56;4991295;28;21012;-67
2023/07/06 09:37:23;;;;;;;1.73;1.27;;;28.60;51.10;;;29.07;nan;100798.38;5008999;28;21260;-67
2023/07/06 09:40:03;;;;;;;1.20;1.20;;;28.60;51.30;;;29.00;nan;100807.56;4991901;28;20728;-68
2023/07/06 09:42:32;;;;;;;1.27;1.07;;;28.50;51.30;;;28.92;nan;100805.19;4992626;28;20605;-68
2023/07/06 09:45:00;;;;;;;1.27;0.90;;;28.40;51.60;;;28.88;nan;100802.13;4979844;28;20660;-67
2023/07/06 09:47:30;;;;;;;1.23;1.13;;;28.40;51.90;;;28.88;nan;100802.13;4979868;28;20646;-67
2023/07/06 09:50:07;;;;;;;1.40;1.30;;;28.40;52.50;;;29.05;nan;100799.63;4997216;28;20649;-68
2023/07/06 09:52:40;;;;;;;2.50;1.80;;;28.50;51.90;;;29.23;nan;100806.88;4986211;28;20629;-67
2023/07/06 09:55:29;;;;;;;1.30;1.20;;;28.70;51.40;;;29.23;nan;100802.34;4978822;28;20614;-67
2023/07/06 09:57:59;;;;;;;1.47;1.37;;;28.70;50.80;;;29.11;nan;100817.56;4990437;28;21454;-66
2023/07/06 10:00:39;;;;;;;1.60;1.50;;;28.60;51.20;;;28.99;nan;100808.59;5001182;28;20646;-68
2023/07/06 10:03:44;;;;;;;2.17;1.93;;;28.50;51.20;;;28.79;nan;100803.47;5001412;28;20618;-68
2023/07/06 10:06:28;;;;;;;1.67;1.57;;;28.40;51.30;;;28.69;nan;100810.41;4975406;28;20618;-65
2023/07/06 10:09:14;;;;;;;1.00;1.00;;;28.20;51.70;;;28.49;nan;100807.94;4989356;28;20619;-67
2023/07/06 10:11:51;;;;;;;1.23;1.23;;;28.10;51.40;;;28.26;nan;100807.75;4959893;28;20618;-67
2023/07/06 10:14:41;;;;;;;2.93;1.10;;;27.90;51.70;;;28.04;nan;100812.69;4979943;28;20633;-67
2023/07/06 10:17:38;;;;;;;1.00;1.00;;;27.60;52.20;;;27.84;nan;100816.53;4994416;28;20657;-67
2023/07/06 10:20:32;;;;;;;1.10;1.10;;;27.40;52.70;;;27.61;nan;100809.91;4999457;28;20673;-68
2023/07/06 10:23:24;;;;;;;1.50;1.40;;;27.20;53.30;;;27.51;nan;100812.22;4986272;28;21401;-67
2023/07/06 10:26:13;;;;;;;0.80;0.80;;;27.10;53.50;;;27.39;nan;100808.59;4985644;28;20622;-67
2023/07/06 10:28:47;;;;;;;1.00;1.00;;;26.90;53.30;;;27.34;nan;100808.41;4995551;28;20638;-67
2023/07/06 10:31:17;;;;;;;1.00;1.00;;;26.80;53.50;;;27.34;nan;100808.41;4984132;28;21058;-67
2023/07/06 10:33:47;;;;;;;1.40;1.40;;;26.80;53.50;;;27.40;nan;100804.88;4990264;28;21056;-68
2023/07/06 10:36:15;;;;;;;1.53;1.50;;;26.80;53.10;;;27.37;nan;100808.00;4997326;28;20708;-67
2023/07/06 10:38:42;;;;;;;9.93;6.67;;;26.80;53.70;;;27.43;nan;100809.81;4982658;28;20645;-66
2023/07/06 10:41:12;;;;;;;1.40;1.30;;;26.90;53.10;;;27.49;nan;100810.81;4996948;28;20635;-67
2023/07/06 10:43:42;;;;;;;12.43;7.70;;;27.00;53.30;;;27.55;nan;100809.94;4996746;28;20680;-68
2023/07/06 10:46:33;;;;;;;1.23;1.23;;;27.00;52.80;;;27.46;nan;100806.69;4990994;28;20637;-67